sensor_id;sensor_type;location;lat;lon;timestamp;P1;durP1;ratioP1;P2;durP2;ratioP2
27025;SDS011;14565;48.626;8.978;2023-04-03T00:02:07;5.57;;;3.30;;
27025;SDS011;14565;48.626;8.978;2023-04-03T00:04:32;4.78;;;3.20;;
27025;SDS011;14565;48.626;8.978;2023-04-03T00:06:58;3.78;;;2.58;;
27025;SDS011;14565;48.626;8.978;2023-04-03T00:09:23;5.10;;;3.33;;
27025;SDS011;14565;48.626;8.978;2023-04-03T00:11:49;4.70;;;3.15;;
27025;SDS011;14565;48.626;8.978;2023-04-03T00:14:15;5.22;;;3.08;;
27025;SDS011;14565;48.626;8.978;2023-04-03T00:16:40;5.20;;;2.92;;
27025;SDS011;14565;48.626;8.978;2023-04-03T00:19:06;4.22;;;2.97;;
27025;SDS011;14565;48.626;8.978;2023-04-03T00:21:32;5.50;;;3.42;;
27025;SDS011;14565;48.626;8.978;2023-04-03T00:23:57;5.55;;;3.40;;
27025;SDS011;14565;48.626;8.978;2023-04-03T00:26:23;5.70;;;3.42;;
27025;SDS011;14565;48.626;8.978;2023-04-03T00:28:48;3.40;;;2.80;;
27025;SDS011;14565;48.626;8.978;2023-04-03T00:31:15;3.90;;;2.85;;
27025;SDS011;14565;48.626;8.978;2023-04-03T00:33:41;4.75;;;2.80;;
27025;SDS011;14565;48.626;8.978;2023-04-03T00:36:08;5.03;;;3.17;;
27025;SDS011;14565;48.626;8.978;2023-04-03T00:38:35;5.03;;;3.03;;
27025;SDS011;14565;48.626;8.978;2023-04-03T00:41:01;6.05;;;3.10;;
27025;SDS011;14565;48.626;8.978;2023-04-03T00:43:26;4.78;;;2.55;;
27025;SDS011;14565;48.626;8.978;2023-04-03T00:45:53;5.95;;;3.47;;
27025;SDS011;14565;48.626;8.978;2023-04-03T00:50:49;5.93;;;3.50;;
27025;SDS011;14565;48.626;8.978;2023-04-03T00:53:18;6.90;;;3.45;;
27025;SDS011;14565;48.626;8.978;2023-04-03T00:55:48;5.25;;;3.13;;
27025;SDS011;14565;48.626;8.978;2023-04-03T00:58:16;4.88;;;3.33;;
27025;SDS011;14565;48.626;8.978;2023-04-03T01:00:46;4.28;;;2.95;;
27025;SDS011;14565;48.626;8.978;2023-04-03T01:03:16;6.13;;;3.22;;
27025;SDS011;14565;48.626;8.978;2023-04-03T01:05:42;7.55;;;3.63;;
27025;SDS011;14565;48.626;8.978;2023-04-03T01:08:07;4.90;;;2.90;;
27025;SDS011;14565;48.626;8.978;2023-04-03T01:10:33;7.65;;;3.30;;
27025;SDS011;14565;48.626;8.978;2023-04-03T01:12:59;4.70;;;2.70;;
27025;SDS011;14565;48.626;8.978;2023-04-03T01:15:26;5.55;;;3.40;;
27025;SDS011;14565;48.626;8.978;2023-04-03T01:17:59;4.53;;;3.30;;
27025;SDS011;14565;48.626;8.978;2023-04-03T01:28:15;6.30;;;3.50;;
27025;SDS011;14565;48.626;8.978;2023-04-03T01:31:29;7.70;;;3.08;;
27025;SDS011;14565;48.626;8.978;2023-04-03T01:33:40;6.40;;;3.00;;
27025;SDS011;14565;48.626;8.978;2023-04-03T01:36:06;5.75;;;3.25;;
27025;SDS011;14565;48.626;8.978;2023-04-03T01:38:32;8.98;;;3.33;;
27025;SDS011;14565;48.626;8.978;2023-04-03T01:40:58;4.75;;;3.15;;
27025;SDS011;14565;48.626;8.978;2023-04-03T01:43:24;5.05;;;3.15;;
27025;SDS011;14565;48.626;8.978;2023-04-03T01:45:50;5.22;;;3.13;;
27025;SDS011;14565;48.626;8.978;2023-04-03T01:48:17;5.35;;;3.65;;
27025;SDS011;14565;48.626;8.978;2023-04-03T01:50:43;5.95;;;3.47;;
27025;SDS011;14565;48.626;8.978;2023-04-03T01:53:08;6.93;;;3.05;;
27025;SDS011;14565;48.626;8.978;2023-04-03T01:55:35;6.53;;;2.85;;
27025;SDS011;14565;48.626;8.978;2023-04-03T01:58:01;4.95;;;3.15;;
27025;SDS011;14565;48.626;8.978;2023-04-03T02:00:26;5.03;;;3.10;;
27025;SDS011;14565;48.626;8.978;2023-04-03T02:02:52;5.13;;;2.65;;
27025;SDS011;14565;48.626;8.978;2023-04-03T02:05:18;6.30;;;3.08;;
27025;SDS011;14565;48.626;8.978;2023-04-03T02:07:44;4.45;;;3.20;;
27025;SDS011;14565;48.626;8.978;2023-04-03T02:10:10;5.18;;;2.92;;
27025;SDS011;14565;48.626;8.978;2023-04-03T02:12:36;4.63;;;2.85;;
27025;SDS011;14565;48.626;8.978;2023-04-03T02:15:01;9.73;;;3.42;;
27025;SDS011;14565;48.626;8.978;2023-04-03T02:17:27;3.72;;;2.58;;
27025;SDS011;14565;48.626;8.978;2023-04-03T02:19:53;5.00;;;2.70;;
27025;SDS011;14565;48.626;8.978;2023-04-03T02:22:18;4.50;;;2.80;;
27025;SDS011;14565;48.626;8.978;2023-04-03T02:24:45;4.18;;;2.72;;
27025;SDS011;14565;48.626;8.978;2023-04-03T02:27:11;4.40;;;3.15;;
27025;SDS011;14565;48.626;8.978;2023-04-03T02:29:36;4.43;;;3.08;;
27025;SDS011;14565;48.626;8.978;2023-04-03T02:32:02;4.32;;;2.90;;
27025;SDS011;14565;48.626;8.978;2023-04-03T02:34:28;6.32;;;2.95;;
27025;SDS011;14565;48.626;8.978;2023-04-03T02:36:54;5.90;;;2.80;;
27025;SDS011;14565;48.626;8.978;2023-04-03T02:39:19;6.00;;;3.10;;
27025;SDS011;14565;48.626;8.978;2023-04-03T02:41:45;4.45;;;2.55;;
27025;SDS011;14565;48.626;8.978;2023-04-03T02:44:11;4.93;;;3.03;;
27025;SDS011;14565;48.626;8.978;2023-04-03T02:46:36;6.47;;;3.35;;
27025;SDS011;14565;48.626;8.978;2023-04-03T02:49:02;5.45;;;2.83;;
27025;SDS011;14565;48.626;8.978;2023-04-03T02:51:28;5.47;;;3.05;;
27025;SDS011;14565;48.626;8.978;2023-04-03T02:53:54;4.20;;;2.83;;
27025;SDS011;14565;48.626;8.978;2023-04-03T02:56:20;5.40;;;3.00;;
27025;SDS011;14565;48.626;8.978;2023-04-03T02:58:46;6.93;;;3.03;;
27025;SDS011;14565;48.626;8.978;2023-04-03T03:01:12;4.82;;;2.88;;
27025;SDS011;14565;48.626;8.978;2023-04-03T03:03:37;6.22;;;2.72;;
27025;SDS011;14565;48.626;8.978;2023-04-03T03:06:04;5.60;;;2.70;;
27025;SDS011;14565;48.626;8.978;2023-04-03T03:10:57;4.75;;;2.58;;
27025;SDS011;14565;48.626;8.978;2023-04-03T03:13:23;5.00;;;2.47;;
27025;SDS011;14565;48.626;8.978;2023-04-03T03:15:49;4.18;;;2.88;;
27025;SDS011;14565;48.626;8.978;2023-04-03T03:18:15;6.32;;;3.03;;
27025;SDS011;14565;48.626;8.978;2023-04-03T03:20:40;6.35;;;2.83;;
27025;SDS011;14565;48.626;8.978;2023-04-03T03:23:06;5.07;;;2.70;;
27025;SDS011;14565;48.626;8.978;2023-04-03T03:25:31;3.67;;;2.45;;
27025;SDS011;14565;48.626;8.978;2023-04-03T03:27:57;7.45;;;2.85;;
27025;SDS011;14565;48.626;8.978;2023-04-03T03:30:23;5.32;;;3.05;;
27025;SDS011;14565;48.626;8.978;2023-04-03T03:32:48;4.32;;;2.38;;
27025;SDS011;14565;48.626;8.978;2023-04-03T03:35:14;4.07;;;2.60;;
27025;SDS011;14565;48.626;8.978;2023-04-03T03:37:40;3.58;;;2.80;;
27025;SDS011;14565;48.626;8.978;2023-04-03T03:40:06;5.45;;;2.72;;
27025;SDS011;14565;48.626;8.978;2023-04-03T03:42:32;4.10;;;2.70;;
27025;SDS011;14565;48.626;8.978;2023-04-03T03:44:57;5.43;;;2.60;;
27025;SDS011;14565;48.626;8.978;2023-04-03T03:47:23;5.72;;;2.80;;
27025;SDS011;14565;48.626;8.978;2023-04-03T03:49:49;3.38;;;2.30;;
27025;SDS011;14565;48.626;8.978;2023-04-03T03:52:14;5.85;;;2.85;;
27025;SDS011;14565;48.626;8.978;2023-04-03T03:54:40;5.07;;;2.83;;
27025;SDS011;14565;48.626;8.978;2023-04-03T03:57:06;6.78;;;3.08;;
27025;SDS011;14565;48.626;8.978;2023-04-03T03:59:31;4.05;;;2.80;;
27025;SDS011;14565;48.626;8.978;2023-04-03T04:01:57;4.00;;;2.75;;
27025;SDS011;14565;48.626;8.978;2023-04-03T04:04:23;4.20;;;2.75;;
27025;SDS011;14565;48.626;8.978;2023-04-03T04:06:48;4.85;;;3.08;;
27025;SDS011;14565;48.626;8.978;2023-04-03T04:09:14;4.60;;;2.85;;
27025;SDS011;14565;48.626;8.978;2023-04-03T04:11:40;4.43;;;3.00;;
27025;SDS011;14565;48.626;8.978;2023-04-03T04:14:06;4.60;;;2.83;;
27025;SDS011;14565;48.626;8.978;2023-04-03T04:16:32;5.18;;;2.80;;
27025;SDS011;14565;48.626;8.978;2023-04-03T04:18:57;4.85;;;2.88;;
27025;SDS011;14565;48.626;8.978;2023-04-03T04:21:23;4.82;;;2.58;;
27025;SDS011;14565;48.626;8.978;2023-04-03T04:23:48;3.80;;;2.65;;
27025;SDS011;14565;48.626;8.978;2023-04-03T04:26:14;5.07;;;3.03;;
27025;SDS011;14565;48.626;8.978;2023-04-03T04:28:40;4.63;;;2.70;;
27025;SDS011;14565;48.626;8.978;2023-04-03T04:31:05;3.33;;;2.72;;
27025;SDS011;14565;48.626;8.978;2023-04-03T04:33:31;4.47;;;2.53;;
27025;SDS011;14565;48.626;8.978;2023-04-03T04:35:57;4.97;;;2.75;;
27025;SDS011;14565;48.626;8.978;2023-04-03T04:38:22;4.63;;;2.72;;
27025;SDS011;14565;48.626;8.978;2023-04-03T04:40:48;6.35;;;2.60;;
27025;SDS011;14565;48.626;8.978;2023-04-03T04:43:14;3.42;;;2.75;;
27025;SDS011;14565;48.626;8.978;2023-04-03T04:45:40;4.65;;;2.90;;
27025;SDS011;14565;48.626;8.978;2023-04-03T04:48:06;2.88;;;2.15;;
27025;SDS011;14565;48.626;8.978;2023-04-03T04:50:32;4.80;;;2.83;;
27025;SDS011;14565;48.626;8.978;2023-04-03T04:52:58;3.22;;;2.35;;
27025;SDS011;14565;48.626;8.978;2023-04-03T04:55:23;3.75;;;2.70;;
27025;SDS011;14565;48.626;8.978;2023-04-03T04:57:49;3.58;;;2.40;;
27025;SDS011;14565;48.626;8.978;2023-04-03T05:00:15;3.38;;;2.47;;
27025;SDS011;14565;48.626;8.978;2023-04-03T05:02:41;5.38;;;2.75;;
27025;SDS011;14565;48.626;8.978;2023-04-03T05:05:07;4.22;;;2.47;;
27025;SDS011;14565;48.626;8.978;2023-04-03T05:07:33;5.53;;;2.60;;
27025;SDS011;14565;48.626;8.978;2023-04-03T05:10:00;4.57;;;2.55;;
27025;SDS011;14565;48.626;8.978;2023-04-03T05:12:27;5.10;;;2.90;;
27025;SDS011;14565;48.626;8.978;2023-04-03T05:14:53;4.85;;;2.70;;
27025;SDS011;14565;48.626;8.978;2023-04-03T05:17:19;5.63;;;2.75;;
27025;SDS011;14565;48.626;8.978;2023-04-03T05:19:45;4.05;;;2.05;;
27025;SDS011;14565;48.626;8.978;2023-04-03T05:22:10;3.15;;;2.28;;
27025;SDS011;14565;48.626;8.978;2023-04-03T05:24:36;4.28;;;2.83;;
27025;SDS011;14565;48.626;8.978;2023-04-03T05:27:02;5.38;;;2.33;;
27025;SDS011;14565;48.626;8.978;2023-04-03T05:29:28;3.80;;;2.60;;
27025;SDS011;14565;48.626;8.978;2023-04-03T05:31:54;3.40;;;2.33;;
27025;SDS011;14565;48.626;8.978;2023-04-03T05:34:20;4.47;;;2.83;;
27025;SDS011;14565;48.626;8.978;2023-04-03T05:36:46;4.40;;;2.22;;
27025;SDS011;14565;48.626;8.978;2023-04-03T05:39:12;4.30;;;2.22;;
27025;SDS011;14565;48.626;8.978;2023-04-03T05:41:38;2.85;;;2.03;;
27025;SDS011;14565;48.626;8.978;2023-04-03T05:44:03;3.97;;;2.28;;
27025;SDS011;14565;48.626;8.978;2023-04-03T05:49:13;4.43;;;2.22;;
27025;SDS011;14565;48.626;8.978;2023-04-03T05:51:39;4.07;;;2.30;;
27025;SDS011;14565;48.626;8.978;2023-04-03T05:54:24;3.78;;;2.00;;
27025;SDS011;14565;48.626;8.978;2023-04-03T05:57:04;3.83;;;2.33;;
27025;SDS011;14565;48.626;8.978;2023-04-03T05:59:39;5.30;;;1.83;;
27025;SDS011;14565;48.626;8.978;2023-04-03T06:02:16;3.22;;;1.60;;
27025;SDS011;14565;48.626;8.978;2023-04-03T06:04:46;3.03;;;1.98;;
27025;SDS011;14565;48.626;8.978;2023-04-03T06:07:13;2.70;;;1.40;;
27025;SDS011;14565;48.626;8.978;2023-04-03T06:09:41;1.83;;;1.48;;
27025;SDS011;14565;48.626;8.978;2023-04-03T06:12:07;3.25;;;1.95;;
27025;SDS011;14565;48.626;8.978;2023-04-03T06:14:33;3.67;;;2.53;;
27025;SDS011;14565;48.626;8.978;2023-04-03T06:16:58;5.65;;;2.25;;
27025;SDS011;14565;48.626;8.978;2023-04-03T06:19:24;2.97;;;1.75;;
27025;SDS011;14565;48.626;8.978;2023-04-03T06:21:50;2.92;;;2.20;;
27025;SDS011;14565;48.626;8.978;2023-04-03T06:24:17;4.70;;;2.15;;
27025;SDS011;14565;48.626;8.978;2023-04-03T06:29:10;3.22;;;1.80;;
27025;SDS011;14565;48.626;8.978;2023-04-03T06:31:36;3.85;;;1.67;;
27025;SDS011;14565;48.626;8.978;2023-04-03T06:34:02;4.95;;;1.95;;
27025;SDS011;14565;48.626;8.978;2023-04-03T06:36:28;3.20;;;1.83;;
27025;SDS011;14565;48.626;8.978;2023-04-03T06:38:54;4.05;;;2.25;;
27025;SDS011;14565;48.626;8.978;2023-04-03T06:41:20;3.50;;;2.00;;
27025;SDS011;14565;48.626;8.978;2023-04-03T06:43:46;2.60;;;1.77;;
27025;SDS011;14565;48.626;8.978;2023-04-03T06:46:13;4.18;;;2.50;;
27025;SDS011;14565;48.626;8.978;2023-04-03T06:48:40;3.92;;;1.98;;
27025;SDS011;14565;48.626;8.978;2023-04-03T06:51:17;3.17;;;1.92;;
27025;SDS011;14565;48.626;8.978;2023-04-03T06:53:48;4.82;;;2.10;;
27025;SDS011;14565;48.626;8.978;2023-04-03T06:56:14;11.27;;;2.22;;
27025;SDS011;14565;48.626;8.978;2023-04-03T06:58:40;4.82;;;2.13;;
27025;SDS011;14565;48.626;8.978;2023-04-03T07:01:06;2.83;;;1.83;;
27025;SDS011;14565;48.626;8.978;2023-04-03T07:03:34;4.93;;;2.10;;
27025;SDS011;14565;48.626;8.978;2023-04-03T07:06:00;4.13;;;2.35;;
27025;SDS011;14565;48.626;8.978;2023-04-03T07:08:26;2.97;;;2.00;;
27025;SDS011;14565;48.626;8.978;2023-04-03T07:10:51;2.90;;;1.85;;
27025;SDS011;14565;48.626;8.978;2023-04-03T07:13:17;2.92;;;1.90;;
27025;SDS011;14565;48.626;8.978;2023-04-03T07:15:43;4.07;;;2.33;;
27025;SDS011;14565;48.626;8.978;2023-04-03T07:18:09;3.10;;;1.95;;
27025;SDS011;14565;48.626;8.978;2023-04-03T07:20:34;5.65;;;2.30;;
27025;SDS011;14565;48.626;8.978;2023-04-03T07:23:00;2.35;;;1.80;;
27025;SDS011;14565;48.626;8.978;2023-04-03T07:25:27;5.47;;;2.40;;
27025;SDS011;14565;48.626;8.978;2023-04-03T07:27:53;3.85;;;1.73;;
27025;SDS011;14565;48.626;8.978;2023-04-03T07:30:19;4.20;;;1.90;;
27025;SDS011;14565;48.626;8.978;2023-04-03T07:32:45;3.88;;;1.92;;
27025;SDS011;14565;48.626;8.978;2023-04-03T07:35:11;2.92;;;1.70;;
27025;SDS011;14565;48.626;8.978;2023-04-03T07:37:37;4.38;;;1.80;;
27025;SDS011;14565;48.626;8.978;2023-04-03T07:40:03;4.65;;;2.72;;
27025;SDS011;14565;48.626;8.978;2023-04-03T07:42:29;7.30;;;1.90;;
27025;SDS011;14565;48.626;8.978;2023-04-03T07:44:55;3.60;;;1.95;;
27025;SDS011;14565;48.626;8.978;2023-04-03T07:47:21;6.93;;;1.85;;
27025;SDS011;14565;48.626;8.978;2023-04-03T07:49:49;5.55;;;2.40;;
27025;SDS011;14565;48.626;8.978;2023-04-03T07:52:15;8.75;;;2.00;;
27025;SDS011;14565;48.626;8.978;2023-04-03T07:54:41;4.88;;;2.28;;
27025;SDS011;14565;48.626;8.978;2023-04-03T07:57:07;6.85;;;1.60;;
27025;SDS011;14565;48.626;8.978;2023-04-03T07:59:32;4.32;;;1.77;;
27025;SDS011;14565;48.626;8.978;2023-04-03T08:01:58;3.47;;;1.50;;
27025;SDS011;14565;48.626;8.978;2023-04-03T08:04:24;3.70;;;1.85;;
27025;SDS011;14565;48.626;8.978;2023-04-03T08:06:51;3.60;;;1.95;;
27025;SDS011;14565;48.626;8.978;2023-04-03T08:09:16;3.70;;;2.00;;
27025;SDS011;14565;48.626;8.978;2023-04-03T08:11:43;4.45;;;1.95;;
27025;SDS011;14565;48.626;8.978;2023-04-03T08:14:10;3.65;;;1.60;;
27025;SDS011;14565;48.626;8.978;2023-04-03T08:16:40;4.57;;;1.63;;
27025;SDS011;14565;48.626;8.978;2023-04-03T08:19:06;4.43;;;2.00;;
27025;SDS011;14565;48.626;8.978;2023-04-03T08:21:32;2.80;;;1.75;;
27025;SDS011;14565;48.626;8.978;2023-04-03T08:23:58;3.17;;;1.65;;
27025;SDS011;14565;48.626;8.978;2023-04-03T08:26:24;3.08;;;2.08;;
27025;SDS011;14565;48.626;8.978;2023-04-03T08:28:51;2.97;;;1.80;;
27025;SDS011;14565;48.626;8.978;2023-04-03T08:31:18;5.72;;;2.22;;
27025;SDS011;14565;48.626;8.978;2023-04-03T08:33:45;4.90;;;2.08;;
27025;SDS011;14565;48.626;8.978;2023-04-03T08:36:44;3.33;;;1.80;;
27025;SDS011;14565;48.626;8.978;2023-04-03T08:39:02;6.15;;;2.20;;
27025;SDS011;14565;48.626;8.978;2023-04-03T08:41:35;4.50;;;2.03;;
27025;SDS011;14565;48.626;8.978;2023-04-03T08:44:24;6.35;;;1.83;;
27025;SDS011;14565;48.626;8.978;2023-04-03T08:49:39;3.35;;;1.70;;
27025;SDS011;14565;48.626;8.978;2023-04-03T08:52:14;3.83;;;2.00;;
27025;SDS011;14565;48.626;8.978;2023-04-03T08:54:53;4.78;;;2.08;;
27025;SDS011;14565;48.626;8.978;2023-04-03T08:57:29;4.53;;;1.83;;
27025;SDS011;14565;48.626;8.978;2023-04-03T08:59:59;4.25;;;1.70;;
27025;SDS011;14565;48.626;8.978;2023-04-03T09:02:50;3.28;;;1.77;;
27025;SDS011;14565;48.626;8.978;2023-04-03T09:10:39;3.40;;;2.50;;
27025;SDS011;14565;48.626;8.978;2023-04-03T09:13:13;6.30;;;2.38;;
27025;SDS011;14565;48.626;8.978;2023-04-03T09:15:43;4.10;;;2.42;;
27025;SDS011;14565;48.626;8.978;2023-04-03T09:21:15;3.75;;;2.03;;
27025;SDS011;14565;48.626;8.978;2023-04-03T09:23:46;4.15;;;1.95;;
27025;SDS011;14565;48.626;8.978;2023-04-03T09:28:54;4.32;;;2.15;;
27025;SDS011;14565;48.626;8.978;2023-04-03T09:34:25;9.65;;;2.33;;
27025;SDS011;14565;48.626;8.978;2023-04-03T09:37:02;3.97;;;2.25;;
27025;SDS011;14565;48.626;8.978;2023-04-03T09:39:31;3.63;;;1.85;;
27025;SDS011;14565;48.626;8.978;2023-04-03T09:42:22;2.83;;;1.77;;
27025;SDS011;14565;48.626;8.978;2023-04-03T09:44:56;4.38;;;1.92;;
27025;SDS011;14565;48.626;8.978;2023-04-03T09:52:38;3.35;;;1.77;;
27025;SDS011;14565;48.626;8.978;2023-04-03T09:55:14;4.78;;;2.00;;
27025;SDS011;14565;48.626;8.978;2023-04-03T09:57:40;4.85;;;1.60;;
27025;SDS011;14565;48.626;8.978;2023-04-03T10:00:10;5.43;;;1.60;;
27025;SDS011;14565;48.626;8.978;2023-04-03T10:02:50;3.20;;;2.10;;
27025;SDS011;14565;48.626;8.978;2023-04-03T10:10:36;3.05;;;2.00;;
27025;SDS011;14565;48.626;8.978;2023-04-03T10:13:06;5.15;;;1.95;;
27025;SDS011;14565;48.626;8.978;2023-04-03T10:15:45;3.38;;;1.45;;
27025;SDS011;14565;48.626;8.978;2023-04-03T10:20:57;5.57;;;1.88;;
27025;SDS011;14565;48.626;8.978;2023-04-03T10:23:33;3.53;;;1.65;;
27025;SDS011;14565;48.626;8.978;2023-04-03T10:26:22;2.67;;;1.85;;
27025;SDS011;14565;48.626;8.978;2023-04-03T10:29:13;6.28;;;1.90;;
27025;SDS011;14565;48.626;8.978;2023-04-03T10:45:08;3.75;;;1.63;;
27025;SDS011;14565;48.626;8.978;2023-04-03T10:47:44;3.83;;;1.90;;
27025;SDS011;14565;48.626;8.978;2023-04-03T10:58:58;3.95;;;1.50;;
27025;SDS011;14565;48.626;8.978;2023-04-03T11:01:33;3.10;;;1.77;;
27025;SDS011;14565;48.626;8.978;2023-04-03T11:04:04;4.05;;;1.80;;
27025;SDS011;14565;48.626;8.978;2023-04-03T11:06:32;2.70;;;1.65;;
27025;SDS011;14565;48.626;8.978;2023-04-03T11:09:18;4.32;;;1.85;;
27025;SDS011;14565;48.626;8.978;2023-04-03T11:11:51;2.78;;;1.65;;
27025;SDS011;14565;48.626;8.978;2023-04-03T11:16:49;4.28;;;1.80;;
27025;SDS011;14565;48.626;8.978;2023-04-03T11:22:32;3.40;;;1.50;;
27025;SDS011;14565;48.626;8.978;2023-04-03T11:25:21;2.28;;;1.23;;
27025;SDS011;14565;48.626;8.978;2023-04-03T11:30:20;3.53;;;1.70;;
27025;SDS011;14565;48.626;8.978;2023-04-03T11:35:49;3.05;;;1.38;;
27025;SDS011;14565;48.626;8.978;2023-04-03T11:38:22;4.00;;;1.67;;
27025;SDS011;14565;48.626;8.978;2023-04-03T11:40:51;4.13;;;1.75;;
27025;SDS011;14565;48.626;8.978;2023-04-03T11:45:50;3.78;;;1.55;;
27025;SDS011;14565;48.626;8.978;2023-04-03T11:50:56;4.15;;;1.40;;
27025;SDS011;14565;48.626;8.978;2023-04-03T11:58:29;3.42;;;1.77;;
27025;SDS011;14565;48.626;8.978;2023-04-03T12:13:41;2.70;;;1.33;;
27025;SDS011;14565;48.626;8.978;2023-04-03T12:16:29;2.70;;;1.20;;
27025;SDS011;14565;48.626;8.978;2023-04-03T12:29:42;3.50;;;1.55;;
27025;SDS011;14565;48.626;8.978;2023-04-03T12:32:25;4.13;;;1.63;;
27025;SDS011;14565;48.626;8.978;2023-04-03T12:37:49;2.40;;;1.20;;
27025;SDS011;14565;48.626;8.978;2023-04-03T12:51:13;3.72;;;1.35;;
27025;SDS011;14565;48.626;8.978;2023-04-03T12:53:44;3.17;;;1.33;;
27025;SDS011;14565;48.626;8.978;2023-04-03T12:59:12;3.22;;;1.60;;
27025;SDS011;14565;48.626;8.978;2023-04-03T13:01:52;2.13;;;1.20;;
27025;SDS011;14565;48.626;8.978;2023-04-03T13:04:19;3.75;;;1.30;;
27025;SDS011;14565;48.626;8.978;2023-04-03T13:06:45;2.58;;;1.25;;
27025;SDS011;14565;48.626;8.978;2023-04-03T13:09:22;5.05;;;1.70;;
27025;SDS011;14565;48.626;8.978;2023-04-03T13:12:10;3.53;;;1.63;;
27025;SDS011;14565;48.626;8.978;2023-04-03T13:14:49;3.40;;;1.42;;
27025;SDS011;14565;48.626;8.978;2023-04-03T13:17:21;3.28;;;1.67;;
27025;SDS011;14565;48.626;8.978;2023-04-03T13:19:47;3.83;;;1.60;;
27025;SDS011;14565;48.626;8.978;2023-04-03T13:24:58;3.03;;;1.52;;
27025;SDS011;14565;48.626;8.978;2023-04-03T13:27:26;2.08;;;1.48;;
27025;SDS011;14565;48.626;8.978;2023-04-03T13:29:56;1.63;;;1.20;;
27025;SDS011;14565;48.626;8.978;2023-04-03T13:32:25;3.15;;;1.80;;
27025;SDS011;14565;48.626;8.978;2023-04-03T13:34:53;2.25;;;1.55;;
27025;SDS011;14565;48.626;8.978;2023-04-03T13:37:23;2.85;;;1.52;;
27025;SDS011;14565;48.626;8.978;2023-04-03T13:40:15;2.63;;;1.27;;
27025;SDS011;14565;48.626;8.978;2023-04-03T13:42:41;2.25;;;1.50;;
27025;SDS011;14565;48.626;8.978;2023-04-03T13:45:14;4.47;;;1.67;;
27025;SDS011;14565;48.626;8.978;2023-04-03T13:47:45;2.00;;;1.30;;
27025;SDS011;14565;48.626;8.978;2023-04-03T13:57:52;3.30;;;1.30;;
27025;SDS011;14565;48.626;8.978;2023-04-03T14:03:20;2.35;;;1.15;;
27025;SDS011;14565;48.626;8.978;2023-04-03T14:05:51;3.08;;;1.48;;
27025;SDS011;14565;48.626;8.978;2023-04-03T14:08:18;4.85;;;1.75;;
27025;SDS011;14565;48.626;8.978;2023-04-03T14:10:44;5.72;;;2.03;;
27025;SDS011;14565;48.626;8.978;2023-04-03T14:13:13;9.82;;;1.60;;
27025;SDS011;14565;48.626;8.978;2023-04-03T14:15:40;3.15;;;1.20;;
27025;SDS011;14565;48.626;8.978;2023-04-03T14:18:12;3.53;;;1.15;;
27025;SDS011;14565;48.626;8.978;2023-04-03T14:20:40;2.72;;;1.17;;
27025;SDS011;14565;48.626;8.978;2023-04-03T14:23:07;3.33;;;1.63;;
27025;SDS011;14565;48.626;8.978;2023-04-03T14:25:32;8.60;;;1.75;;
27025;SDS011;14565;48.626;8.978;2023-04-03T14:27:59;2.20;;;1.45;;
27025;SDS011;14565;48.626;8.978;2023-04-03T14:30:30;5.18;;;1.48;;
27025;SDS011;14565;48.626;8.978;2023-04-03T14:32:59;2.30;;;1.52;;
27025;SDS011;14565;48.626;8.978;2023-04-03T14:35:26;5.13;;;1.42;;
27025;SDS011;14565;48.626;8.978;2023-04-03T14:37:53;4.45;;;1.73;;
27025;SDS011;14565;48.626;8.978;2023-04-03T14:40:21;4.80;;;1.50;;
27025;SDS011;14565;48.626;8.978;2023-04-03T14:42:49;4.93;;;1.45;;
27025;SDS011;14565;48.626;8.978;2023-04-03T14:45:16;3.13;;;1.60;;
27025;SDS011;14565;48.626;8.978;2023-04-03T14:47:47;2.67;;;1.63;;
27025;SDS011;14565;48.626;8.978;2023-04-03T14:50:17;4.68;;;1.60;;
27025;SDS011;14565;48.626;8.978;2023-04-03T14:52:46;3.88;;;1.40;;
27025;SDS011;14565;48.626;8.978;2023-04-03T14:55:14;2.70;;;1.58;;
27025;SDS011;14565;48.626;8.978;2023-04-03T14:57:41;4.13;;;1.75;;
27025;SDS011;14565;48.626;8.978;2023-04-03T15:00:12;3.40;;;1.75;;
27025;SDS011;14565;48.626;8.978;2023-04-03T15:02:42;2.25;;;1.48;;
27025;SDS011;14565;48.626;8.978;2023-04-03T15:05:08;6.25;;;1.50;;
27025;SDS011;14565;48.626;8.978;2023-04-03T15:07:36;6.10;;;2.53;;
27025;SDS011;14565;48.626;8.978;2023-04-03T15:12:47;1.77;;;1.40;;
27025;SDS011;14565;48.626;8.978;2023-04-03T15:15:14;5.65;;;1.95;;
27025;SDS011;14565;48.626;8.978;2023-04-03T15:17:41;4.28;;;1.98;;
27025;SDS011;14565;48.626;8.978;2023-04-03T15:20:18;3.45;;;1.70;;
27025;SDS011;14565;48.626;8.978;2023-04-03T15:22:45;5.93;;;2.15;;
27025;SDS011;14565;48.626;8.978;2023-04-03T15:25:11;4.85;;;1.77;;
27025;SDS011;14565;48.626;8.978;2023-04-03T15:27:39;3.90;;;1.65;;
27025;SDS011;14565;48.626;8.978;2023-04-03T15:30:07;5.25;;;1.70;;
27025;SDS011;14565;48.626;8.978;2023-04-03T15:32:38;3.05;;;1.67;;
27025;SDS011;14565;48.626;8.978;2023-04-03T15:35:03;5.72;;;1.77;;
27025;SDS011;14565;48.626;8.978;2023-04-03T15:37:30;3.42;;;1.10;;
27025;SDS011;14565;48.626;8.978;2023-04-03T15:39:56;6.32;;;1.70;;
27025;SDS011;14565;48.626;8.978;2023-04-03T15:42:21;2.55;;;1.52;;
27025;SDS011;14565;48.626;8.978;2023-04-03T15:44:47;6.32;;;2.38;;
27025;SDS011;14565;48.626;8.978;2023-04-03T15:47:13;4.60;;;1.70;;
27025;SDS011;14565;48.626;8.978;2023-04-03T15:49:38;1.92;;;1.30;;
27025;SDS011;14565;48.626;8.978;2023-04-03T15:52:04;3.45;;;1.48;;
27025;SDS011;14565;48.626;8.978;2023-04-03T15:54:30;4.68;;;1.60;;
27025;SDS011;14565;48.626;8.978;2023-04-03T15:56:56;4.93;;;1.65;;
27025;SDS011;14565;48.626;8.978;2023-04-03T15:59:22;3.55;;;1.40;;
27025;SDS011;14565;48.626;8.978;2023-04-03T16:01:48;5.07;;;1.75;;
27025;SDS011;14565;48.626;8.978;2023-04-03T16:04:15;4.20;;;2.00;;
27025;SDS011;14565;48.626;8.978;2023-04-03T16:06:41;4.03;;;1.80;;
27025;SDS011;14565;48.626;8.978;2023-04-03T16:09:08;4.00;;;1.50;;
27025;SDS011;14565;48.626;8.978;2023-04-03T16:11:35;4.65;;;1.70;;
27025;SDS011;14565;48.626;8.978;2023-04-03T16:14:02;4.65;;;1.60;;
27025;SDS011;14565;48.626;8.978;2023-04-03T16:16:27;2.72;;;1.60;;
27025;SDS011;14565;48.626;8.978;2023-04-03T16:18:55;2.53;;;1.40;;
27025;SDS011;14565;48.626;8.978;2023-04-03T16:21:21;2.35;;;1.23;;
27025;SDS011;14565;48.626;8.978;2023-04-03T16:23:47;2.80;;;1.40;;
27025;SDS011;14565;48.626;8.978;2023-04-03T16:26:13;3.65;;;1.30;;
27025;SDS011;14565;48.626;8.978;2023-04-03T16:28:39;2.00;;;1.50;;
27025;SDS011;14565;48.626;8.978;2023-04-03T16:31:06;2.33;;;1.50;;
27025;SDS011;14565;48.626;8.978;2023-04-03T16:33:33;3.13;;;1.48;;
27025;SDS011;14565;48.626;8.978;2023-04-03T16:35:59;4.70;;;1.58;;
27025;SDS011;14565;48.626;8.978;2023-04-03T16:38:25;3.70;;;2.20;;
27025;SDS011;14565;48.626;8.978;2023-04-03T16:40:51;4.38;;;1.90;;
27025;SDS011;14565;48.626;8.978;2023-04-03T16:43:21;3.83;;;2.00;;
27025;SDS011;14565;48.626;8.978;2023-04-03T16:45:47;6.53;;;1.42;;
27025;SDS011;14565;48.626;8.978;2023-04-03T16:48:12;2.70;;;1.60;;
27025;SDS011;14565;48.626;8.978;2023-04-03T16:50:39;4.80;;;1.50;;
27025;SDS011;14565;48.626;8.978;2023-04-03T16:53:04;3.05;;;1.67;;
27025;SDS011;14565;48.626;8.978;2023-04-03T16:55:33;3.72;;;1.80;;
27025;SDS011;14565;48.626;8.978;2023-04-03T16:57:58;4.95;;;1.60;;
27025;SDS011;14565;48.626;8.978;2023-04-03T17:00:24;3.75;;;1.38;;
27025;SDS011;14565;48.626;8.978;2023-04-03T17:02:50;3.20;;;1.38;;
27025;SDS011;14565;48.626;8.978;2023-04-03T17:05:15;3.67;;;1.30;;
27025;SDS011;14565;48.626;8.978;2023-04-03T17:07:41;2.33;;;1.15;;
27025;SDS011;14565;48.626;8.978;2023-04-03T17:10:07;2.53;;;1.50;;
27025;SDS011;14565;48.626;8.978;2023-04-03T17:12:33;3.40;;;1.70;;
27025;SDS011;14565;48.626;8.978;2023-04-03T17:14:58;1.50;;;1.17;;
27025;SDS011;14565;48.626;8.978;2023-04-03T17:17:24;1.73;;;1.38;;
27025;SDS011;14565;48.626;8.978;2023-04-03T17:19:51;2.90;;;1.70;;
27025;SDS011;14565;48.626;8.978;2023-04-03T17:22:18;3.20;;;1.60;;